createdAt,value
2022-08-30T00:01:42.146Z,27.88
2022-08-30T00:05:19.692Z,27.82
2022-08-30T00:08:58.059Z,27.77
2022-08-30T00:12:35.917Z,27.71
2022-08-30T00:16:15.011Z,27.64
2022-08-30T00:19:53.919Z,27.58
2022-08-30T00:23:32.373Z,27.53
2022-08-30T00:27:09.954Z,27.50
2022-08-30T00:30:48.063Z,27.47
2022-08-30T00:34:25.710Z,27.43
2022-08-30T00:38:03.289Z,27.41
2022-08-30T00:41:41.986Z,27.38
2022-08-30T00:45:26.801Z,27.37
2022-08-30T00:49:08.417Z,27.34
2022-08-30T00:52:49.499Z,27.31
2022-08-30T00:56:28.856Z,27.27
2022-08-30T01:00:07.231Z,27.25
2022-08-30T01:03:45.311Z,27.22
2022-08-30T01:07:23.281Z,27.18
2022-08-30T01:11:01.682Z,27.15
2022-08-30T01:14:40.023Z,27.14
2022-08-30T01:18:22.207Z,27.13
2022-08-30T01:22:08.755Z,27.12
2022-08-30T01:25:49.647Z,27.10
2022-08-30T01:29:28.614Z,27.09
2022-08-30T01:33:06.935Z,27.08
2022-08-30T01:36:46.308Z,27.05
2022-08-30T01:40:24.087Z,27.00
2022-08-30T01:44:06.884Z,26.98
2022-08-30T01:47:44.211Z,26.97
2022-08-30T01:51:24.928Z,26.95
2022-08-30T01:55:04.498Z,26.96
2022-08-30T01:58:43.498Z,26.98
2022-08-30T02:02:24.944Z,26.99
2022-08-30T02:06:05.251Z,27.01
2022-08-30T02:09:42.429Z,27.02
2022-08-30T02:13:21.061Z,27.03
2022-08-30T02:16:58.981Z,27.04
2022-08-30T02:20:39.829Z,27.05
2022-08-30T02:24:16.857Z,27.06
2022-08-30T02:27:54.799Z,27.07
2022-08-30T02:31:32.797Z,27.07
2022-08-30T02:35:10.242Z,27.07
2022-08-30T02:38:48.339Z,27.05
2022-08-30T02:42:26.216Z,27.02
2022-08-30T02:46:03.723Z,26.97
2022-08-30T02:49:41.765Z,26.93
2022-08-30T02:53:20.448Z,26.90
2022-08-30T02:56:57.919Z,26.87
2022-08-30T03:00:36.783Z,26.84
2022-08-30T03:04:13.953Z,26.81
2022-08-30T03:07:50.964Z,26.79
2022-08-30T03:11:28.455Z,26.78
2022-08-30T03:15:06.679Z,26.75
2022-08-30T03:18:43.706Z,26.71
2022-08-30T03:22:20.834Z,26.68
2022-08-30T03:25:58.753Z,26.64
2022-08-30T03:29:36.604Z,26.60
2022-08-30T03:33:13.626Z,26.59
2022-08-30T03:36:52.748Z,26.57
2022-08-30T03:40:30.706Z,26.55
2022-08-30T03:44:09.874Z,26.53
2022-08-30T03:47:47.230Z,26.52
2022-08-30T03:51:25.458Z,26.51
2022-08-30T03:55:03.237Z,26.50
2022-08-30T03:58:40.216Z,26.49
2022-08-30T04:02:17.626Z,26.51
2022-08-30T04:05:56.030Z,26.54
2022-08-30T04:09:33.203Z,26.59
2022-08-30T04:13:11.225Z,26.64
2022-08-30T04:16:49.713Z,26.69
2022-08-30T04:20:28.714Z,26.74
2022-08-30T04:24:06.981Z,26.78
2022-08-30T04:27:46.127Z,26.81
2022-08-30T04:31:25.145Z,26.84
2022-08-30T04:35:02.369Z,26.87
2022-08-30T04:38:41.816Z,26.90
2022-08-30T04:42:19.022Z,26.96
2022-08-30T04:45:57.076Z,27.04
2022-08-30T04:49:34.453Z,27.09
2022-08-30T04:53:12.210Z,27.10
2022-08-30T04:56:49.996Z,27.11
2022-08-30T05:00:27.487Z,27.11
2022-08-30T05:04:05.735Z,27.11
2022-08-30T05:07:42.824Z,27.12
2022-08-30T05:11:21.816Z,27.12
2022-08-30T05:14:59.086Z,27.10
2022-08-30T05:18:42.374Z,27.06
2022-08-30T05:22:12.900Z,26.99
2022-08-30T05:25:49.986Z,26.91
2022-08-30T05:29:26.856Z,26.83
2022-08-30T05:33:04.119Z,26.75
2022-08-30T05:36:41.501Z,26.67
2022-08-30T05:40:19.568Z,26.59
2022-08-30T05:44:00.618Z,26.52
2022-08-30T05:47:38.668Z,26.46
2022-08-30T05:51:20.436Z,26.40
2022-08-30T05:54:58.009Z,26.35
2022-08-30T05:58:36.654Z,26.33
2022-08-30T06:02:14.003Z,26.31
2022-08-30T06:05:52.017Z,26.29
2022-08-30T06:09:30.159Z,26.29
2022-08-30T06:13:07.501Z,26.28
2022-08-30T06:16:44.966Z,26.23
2022-08-30T06:20:23.968Z,26.19
2022-08-30T06:24:05.506Z,26.18
2022-08-30T06:27:43.548Z,26.18
2022-08-30T06:31:23.901Z,26.21
2022-08-30T06:35:01.227Z,26.26
2022-08-30T06:38:41.015Z,26.30
2022-08-30T06:42:19.258Z,26.37
2022-08-30T06:45:56.277Z,26.47
2022-08-30T06:49:35.062Z,26.57
2022-08-30T06:53:13.100Z,26.69
2022-08-30T06:56:58.984Z,26.80
2022-08-30T07:00:38.290Z,26.92
2022-08-30T07:04:16.384Z,27.03
2022-08-30T07:07:54.797Z,27.15
2022-08-30T07:11:35.258Z,27.25
2022-08-30T07:15:13.528Z,27.36
2022-08-30T07:18:51.565Z,27.48
2022-08-30T07:22:33.459Z,27.63
2022-08-30T07:26:14.279Z,27.81
2022-08-30T07:29:51.514Z,28.01
2022-08-30T07:33:28.964Z,28.19
2022-08-30T07:37:06.565Z,28.33
2022-08-30T07:40:44.881Z,28.39
2022-08-30T07:44:23.190Z,28.37
2022-08-30T07:48:04.526Z,28.31
2022-08-30T07:51:42.365Z,28.23
2022-08-30T07:55:20.269Z,28.17
2022-08-30T07:58:57.595Z,28.16
2022-08-30T08:02:35.144Z,28.23
2022-08-30T08:06:15.917Z,28.37
2022-08-30T08:09:53.757Z,28.57
2022-08-30T08:13:36.605Z,28.82
2022-08-30T08:17:32.721Z,29.17
2022-08-30T08:21:11.067Z,29.52
2022-08-30T08:24:50.305Z,29.88
2022-08-30T08:28:27.737Z,30.18
2022-08-30T08:32:05.162Z,30.44
2022-08-30T08:35:42.822Z,30.66
2022-08-30T08:39:21.037Z,30.81
2022-08-30T08:43:25.286Z,31.01
2022-08-30T08:47:14.031Z,31.22
2022-08-30T08:50:51.793Z,31.35
2022-08-30T08:54:32.705Z,31.52
2022-08-30T08:58:32.970Z,31.61
2022-08-30T09:02:22.566Z,31.66
2022-08-30T09:06:04.477Z,31.68
2022-08-30T09:09:43.503Z,31.73
2022-08-30T09:13:23.051Z,31.87
2022-08-30T09:17:04.801Z,32.03
2022-08-30T09:20:48.771Z,32.17
2022-08-30T09:24:26.299Z,32.26
2022-08-30T09:28:14.280Z,32.35
2022-08-30T09:32:10.109Z,32.51
2022-08-30T09:39:50.415Z,32.77
2022-08-30T09:43:30.268Z,32.86
2022-08-30T09:47:24.246Z,32.91
2022-08-30T09:51:11.463Z,32.98
2022-08-30T09:55:24.417Z,33.08
2022-08-30T09:59:14.777Z,33.15
2022-08-30T10:03:15.892Z,33.07
2022-08-30T10:07:07.061Z,32.95
2022-08-30T10:10:48.278Z,32.89
2022-08-30T10:14:25.471Z,32.91
2022-08-30T10:18:15.985Z,32.88
2022-08-30T10:22:03.925Z,32.79
2022-08-30T10:26:19.416Z,32.78
2022-08-30T10:30:05.809Z,32.73
2022-08-30T10:33:48.686Z,32.60
2022-08-30T10:37:35.314Z,32.53
2022-08-30T10:41:24.530Z,32.57
2022-08-30T10:45:13.161Z,32.57
2022-08-30T10:48:50.543Z,32.69
2022-08-30T10:53:07.978Z,32.84
2022-08-30T10:56:50.809Z,33.02
2022-08-30T11:00:30.679Z,33.14
2022-08-30T11:04:45.388Z,33.27
2022-08-30T11:08:45.903Z,33.44
2022-08-30T11:12:42.580Z,33.26
2022-08-30T11:16:44.240Z,33.08
2022-08-30T11:20:31.315Z,33.01
2022-08-30T11:24:18.139Z,33.12
2022-08-30T11:27:56.286Z,33.18
2022-08-30T11:31:40.683Z,33.09
2022-08-30T11:35:43.665Z,32.91
2022-08-30T11:39:51.454Z,33.04
2022-08-30T11:43:39.444Z,33.27
2022-08-30T11:47:40.519Z,33.30
2022-08-30T11:52:08.226Z,33.26
2022-08-30T11:56:09.018Z,33.26
2022-08-30T12:00:18.688Z,33.15
2022-08-30T12:04:18.708Z,33.09
2022-08-30T12:08:02.504Z,33.20
2022-08-30T12:11:55.356Z,33.32
2022-08-30T12:15:55.753Z,33.49
2022-08-30T12:19:34.161Z,33.51
2022-08-30T12:23:17.761Z,33.65
2022-08-30T12:26:56.236Z,33.85
2022-08-30T12:30:35.315Z,33.98
2022-08-30T12:34:27.889Z,34.06
2022-08-30T12:38:18.133Z,34.21
2022-08-30T12:42:20.783Z,34.46
2022-08-30T12:46:07.456Z,34.54
2022-08-30T12:49:46.803Z,34.35
2022-08-30T12:53:36.017Z,34.21
2022-08-30T12:57:34.199Z,33.99
2022-08-30T13:01:17.833Z,33.76
2022-08-30T13:04:56.856Z,33.40
2022-08-30T13:08:50.259Z,33.35
2022-08-30T13:12:29.321Z,33.59
2022-08-30T13:16:21.849Z,33.88
2022-08-30T13:20:12.996Z,34.19
2022-08-30T13:23:59.743Z,34.57
2022-08-30T13:27:40.621Z,34.92
2022-08-30T13:31:18.076Z,35.08
2022-08-30T13:34:55.861Z,35.25
2022-08-30T13:38:34.623Z,35.38
2022-08-30T13:46:13.212Z,35.29
2022-08-30T13:49:51.261Z,35.42
2022-08-30T14:01:29.251Z,35.02
2022-08-30T14:05:07.060Z,34.67
2022-08-30T14:08:46.213Z,34.54
2022-08-30T14:16:28.211Z,35.99
2022-08-30T14:20:07.919Z,36.43
2022-08-30T14:23:45.607Z,37.12
2022-08-30T14:27:23.888Z,38.18
2022-08-30T14:31:04.134Z,39.20
2022-08-30T14:34:44.933Z,39.38
2022-08-30T14:38:23.078Z,38.64
2022-08-30T14:42:03.491Z,37.69
2022-08-30T14:45:42.239Z,36.69
2022-08-30T14:49:22.483Z,35.97
2022-08-30T14:53:00.511Z,35.42
2022-08-30T14:56:39.962Z,34.99
2022-08-30T15:00:17.371Z,34.31
2022-08-30T15:03:55.359Z,33.83
2022-08-30T15:07:33.662Z,33.58
2022-08-30T15:11:13.630Z,33.57
2022-08-30T15:14:50.848Z,33.53
2022-08-30T15:18:27.766Z,33.67
2022-08-30T15:22:06.804Z,33.87
2022-08-30T15:25:46.051Z,34.01
2022-08-30T15:29:25.632Z,34.09
2022-08-30T15:33:02.893Z,34.14
2022-08-30T15:36:41.466Z,34.14
2022-08-30T15:40:20.198Z,33.89
2022-08-30T15:43:59.477Z,33.65
2022-08-30T15:47:38.547Z,33.22
2022-08-30T15:51:19.598Z,32.66
2022-08-30T15:54:57.843Z,32.08
2022-08-30T15:58:35.321Z,31.60
2022-08-30T16:02:14.149Z,31.24
2022-08-30T16:05:54.327Z,31.01
2022-08-30T16:09:33.529Z,30.73
2022-08-30T16:13:11.632Z,30.53
2022-08-30T16:16:49.986Z,30.45
2022-08-30T16:20:27.846Z,30.44
2022-08-30T16:24:08.168Z,30.39
2022-08-30T16:27:47.976Z,30.34
2022-08-30T16:31:28.690Z,30.21
2022-08-30T16:35:07.089Z,30.15
2022-08-30T16:38:44.445Z,30.15
2022-08-30T16:42:23.035Z,30.17
2022-08-30T16:46:06.694Z,30.16
2022-08-30T16:49:45.110Z,30.16
2022-08-30T16:53:25.332Z,30.15
2022-08-30T16:57:02.783Z,30.04
2022-08-30T17:00:40.319Z,29.96
2022-08-30T17:04:25.477Z,29.95
2022-08-30T17:08:05.074Z,29.96
2022-08-30T17:11:43.074Z,29.99
2022-08-30T17:15:21.405Z,29.96
2022-08-30T17:19:01.224Z,29.96
2022-08-30T17:22:39.625Z,29.99
2022-08-30T17:26:18.383Z,30.02
2022-08-30T17:29:56.073Z,30.05
2022-08-30T17:33:33.738Z,30.09
2022-08-30T17:37:11.810Z,30.14
2022-08-30T17:40:49.929Z,30.17
2022-08-30T17:44:34.658Z,30.22
2022-08-30T17:48:12.449Z,30.25
2022-08-30T17:51:54.193Z,30.29
2022-08-30T17:55:35.368Z,30.32
2022-08-30T17:59:17.777Z,30.37
2022-08-30T18:02:55.007Z,30.43
2022-08-30T18:06:35.314Z,30.46
2022-08-30T18:10:13.938Z,30.49
2022-08-30T18:13:51.167Z,30.52
2022-08-30T18:17:28.704Z,30.56
2022-08-30T18:21:13.773Z,30.59
2022-08-30T18:24:51.714Z,30.63
2022-08-30T18:28:30.397Z,30.66
2022-08-30T18:32:09.120Z,30.70
2022-08-30T18:35:48.373Z,30.72
2022-08-30T18:39:28.109Z,30.73
2022-08-30T18:43:12.721Z,30.74
2022-08-30T18:46:56.544Z,30.76
2022-08-30T18:50:48.329Z,30.77
2022-08-30T18:54:26.115Z,30.79
2022-08-30T18:58:04.364Z,30.80
2022-08-30T19:01:42.303Z,30.82
2022-08-30T19:05:21.613Z,30.84
2022-08-30T19:08:59.490Z,30.86
2022-08-30T19:12:38.584Z,30.87
2022-08-30T19:16:17.843Z,30.88
2022-08-30T19:19:54.824Z,30.94
2022-08-30T19:23:36.064Z,31.02
2022-08-30T19:27:15.058Z,31.03
2022-08-30T19:30:52.518Z,31.02
2022-08-30T19:34:29.442Z,31.03
2022-08-30T19:38:07.737Z,31.05
2022-08-30T19:41:45.436Z,31.00
2022-08-30T19:45:23.792Z,30.86
2022-08-30T19:49:01.058Z,30.67
2022-08-30T19:52:38.389Z,30.51
2022-08-30T19:56:15.434Z,30.44
2022-08-30T19:59:52.790Z,30.35
2022-08-30T20:03:29.711Z,30.28
2022-08-30T20:07:07.185Z,30.18
2022-08-30T20:10:46.866Z,30.10
2022-08-30T20:14:24.363Z,29.99
2022-08-30T20:18:06.325Z,29.92
2022-08-30T20:21:51.870Z,29.87
2022-08-30T20:25:32.397Z,29.88
2022-08-30T20:29:10.985Z,29.87
2022-08-30T20:32:49.605Z,29.88
2022-08-30T20:36:26.921Z,29.91
2022-08-30T20:40:05.026Z,29.93
2022-08-30T20:43:44.558Z,29.98
2022-08-30T20:47:22.975Z,30.03
2022-08-30T20:51:03.493Z,30.07
2022-08-30T20:54:41.372Z,30.12
2022-08-30T20:58:18.639Z,30.16
2022-08-30T21:01:58.791Z,30.24
2022-08-30T21:05:37.135Z,30.29
2022-08-30T21:09:16.096Z,30.35
2022-08-30T21:12:54.499Z,30.40
2022-08-30T21:16:32.517Z,30.38
2022-08-30T21:20:11.091Z,30.35
2022-08-30T21:23:50.064Z,30.33
2022-08-30T21:27:28.870Z,30.34
2022-08-30T21:31:11.238Z,30.37
2022-08-30T21:34:48.091Z,30.42
2022-08-30T21:38:26.691Z,30.44
2022-08-30T21:42:04.226Z,30.45
2022-08-30T21:45:44.319Z,30.44
2022-08-30T21:49:23.588Z,30.42
2022-08-30T21:53:01.491Z,30.39
2022-08-30T21:56:41.015Z,30.35
2022-08-30T22:00:18.795Z,30.29
2022-08-30T22:03:59.452Z,30.22
2022-08-30T22:07:37.172Z,30.14
2022-08-30T22:11:18.325Z,30.06
2022-08-30T22:14:55.821Z,29.99
2022-08-30T22:18:37.033Z,29.92
2022-08-30T22:22:09.745Z,29.86
2022-08-30T22:25:49.518Z,29.79
2022-08-30T22:29:28.232Z,29.73
2022-08-30T22:33:06.415Z,29.68
2022-08-30T22:36:43.902Z,29.63
2022-08-30T22:40:22.142Z,29.59
2022-08-30T22:44:01.128Z,29.53
2022-08-30T22:47:39.370Z,29.49
2022-08-30T22:51:19.641Z,29.45
2022-08-30T22:54:57.945Z,29.42
2022-08-30T22:58:37.605Z,29.41
2022-08-30T23:02:15.008Z,29.42
2022-08-30T23:05:53.037Z,29.43
2022-08-30T23:09:30.832Z,29.42
2022-08-30T23:13:08.531Z,29.39
2022-08-30T23:16:45.954Z,29.36
2022-08-30T23:20:24.382Z,29.33
2022-08-30T23:24:02.295Z,29.29
2022-08-30T23:27:40.874Z,29.26
2022-08-30T23:31:18.429Z,29.22
2022-08-30T23:34:56.744Z,29.19
2022-08-30T23:38:34.658Z,29.15
2022-08-30T23:42:11.841Z,29.13
2022-08-30T23:45:49.359Z,29.11
2022-08-30T23:49:26.999Z,29.09
2022-08-30T23:53:04.167Z,29.09
2022-08-30T23:56:41.678Z,29.07
